Time;durP1;ratioP1;P1;durP2;ratioP2;P2;SDS_P1;SDS_P2;PMS_P1;PMS_P2;Temp;Humidity;BMP_temperature;BMP_pressure;BME280_temperature;BME280_humidity;BME280_pressure;Samples;Min_cycle;Max_cycle;Signal;HPM_P1;HPM_P2
2022/04/16 00:00:29;;;;;;;;;;;;;;;;;;1282082;23;865;-38
2022/04/16 00:01:00;;;;;;;;;;;;;;;;;;1281922;23;944;-41
2022/04/16 00:01:30;;;;;;;;;;;;;;;;;;1282381;23;1274;-37
2022/04/16 00:02:03;;;;;;;;;;;;;;;;;;1288473;23;897;-35
2022/04/16 00:02:34;;;;;;;;;;;;;;;;;;1288834;23;1165;-37
2022/04/16 00:03:04;;;;;;;;;;;;;;;;;;1288621;23;782;-41
2022/04/16 00:03:34;;;;;;;;;;;;;;;;;;1288760;23;1127;-34
2022/04/16 00:04:07;;;;;;;;;;;;;;;;;;1288655;23;798;-37
2022/04/16 00:04:42;;;;;;;;;;;;;;;;;;1282001;23;1101;-36
2022/04/16 00:05:13;;;;;;;;;;;;;;;;;;1281732;23;948;-38
2022/04/16 00:05:44;;;;;;;;;;;;;;;;;;1281622;23;818;-36
2022/04/16 00:06:15;;;;;;;;;;;;;;;;;;1283076;23;829;-37
2022/04/16 00:06:45;;;;;;;;;;;;;;;;;;1288698;23;892;-37
2022/04/16 00:07:18;;;;;;;;;;;;;;;;;;1288638;23;905;-36
2022/04/16 00:08:06;;;;;;;;;;;;;;;;;;1288770;23;877;-38
2022/04/16 00:08:36;;;;;;;;;;;;;;;;;;1288813;23;821;-35
2022/04/16 00:09:06;;;;;;;;;;;;;;;;;;1288624;23;925;-38
2022/04/16 00:09:37;;;;;;;;;;;;;;;;;;1288650;23;818;-37
2022/04/16 00:10:08;;;;;;;;;;;;;;;;;;1288670;23;786;-38
2022/04/16 00:10:42;;;;;;;;;;;;;;;;;;1288819;23;847;-38
2022/04/16 00:11:12;;;;;;;;;;;;;;;;;;1288589;23;750;-38
2022/04/16 00:11:42;;;;;;;;;;;;;;;;;;1288741;23;832;-39
2022/04/16 00:12:16;;;;;;;;;;;;;;;;;;1288185;23;790;-35
2022/04/16 00:12:46;;;;;;;;;;;;;;;;;;1288779;23;916;-38
2022/04/16 00:13:17;;;;;;;;;;;;;;;;;;1288285;23;825;-38
2022/04/16 00:13:50;;;;;;;;;;;;;;;;;;1288673;23;860;-38
2022/04/16 00:14:20;;;;;;;;;;;;;;;;;;1288518;23;955;-38
2022/04/16 00:14:51;;;;;;;;;;;;;;;;;;1288796;23;836;-38
2022/04/16 00:15:21;;;;;;;;;;;;;;;;;;1288582;23;829;-36
2022/04/16 00:15:54;;;;;;;;;;;;;;;;;;1288574;23;1674;-38
2022/04/16 00:16:25;;;;;;;;;;;;;;;;;;1288165;23;825;-39
2022/04/16 00:16:55;;;;;;;;;;;;;;;;;;1288371;23;789;-39
2022/04/16 00:17:25;;;;;;;;;;;;;;;;;;1288183;23;1056;-38
2022/04/16 00:17:56;;;;;;;;;;;;;;;;;;1288096;23;829;-37
2022/04/16 00:18:26;;;;;;;;;;;;;;;;;;1288755;23;762;-35
2022/04/16 00:18:56;;;;;;;;;;;;;;;;;;1288464;23;988;-34
2022/04/16 00:19:27;;;;;;;;;;;;;;;;;;1282037;23;1896;-35
2022/04/16 00:19:57;;;;;;;;;;;;;;;;;;1281567;23;1602;-37
2022/04/16 00:20:27;;;;;;;;;;;;;;;;;;1280709;23;1042;-38
2022/04/16 00:20:58;;;;;;;;;;;;;;;;;;1281948;23;924;-33
2022/04/16 00:21:28;;;;;;;;;;;;;;;;;;1288730;23;868;-36
2022/04/16 00:22:00;;;;;;;;;;;;;;;;;;1288527;23;881;-37
2022/04/16 00:22:30;;;;;;;;;;;;;;;;;;1288741;23;880;-37
2022/04/16 00:23:00;;;;;;;;;;;;;;;;;;1288417;23;1107;-36
2022/04/16 00:23:30;;;;;;;;;;;;;;;;;;1288826;23;770;-38
2022/04/16 00:24:01;;;;;;;;;;;;;;;;;;1288442;23;869;-34
2022/04/16 00:24:33;;;;;;;;;;;;;;;;;;1288958;23;805;-39
2022/04/16 00:25:09;;;;;;;;;;;;;;;;;;1288347;23;837;-36
2022/04/16 00:25:39;;;;;;;;;;;;;;;;;;1288350;23;851;-38
2022/04/16 00:26:11;;;;;;;;;;;;;;;;;;1288644;23;634;-39
2022/04/16 00:26:42;;;;;;;;;;;;;;;;;;1288649;23;880;-39
2022/04/16 00:27:12;;;;;;;;;;;;;;;;;;1288500;23;990;-36
2022/04/16 00:27:43;;;;;;;;;;;;;;;;;;1288391;23;865;-36
2022/04/16 00:28:13;;;;;;;;;;;;;;;;;;1288378;23;837;-37
2022/04/16 00:28:44;;;;;;;;;;;;;;;;;;1288813;23;836;-38
2022/04/16 00:29:16;;;;;;;;;;;;;;;;;;1288378;23;944;-34
2022/04/16 00:29:46;;;;;;;;;;;;;;;;;;1288795;23;1139;-37
2022/04/16 00:30:17;;;;;;;;;;;;;;;;;;1288509;23;956;-38
2022/04/16 00:30:47;;;;;;;;;;;;;;;;;;1288647;23;825;-36
2022/04/16 00:31:18;;;;;;;;;;;;;;;;;;1288504;23;802;-39
2022/04/16 00:31:48;;;;;;;;;;;;;;;;;;1288810;23;995;-35
2022/04/16 00:32:19;;;;;;;;;;;;;;;;;;1288239;23;955;-35
2022/04/16 00:32:54;;;;;;;;;;;;;;;;;;1288755;23;1439;-36
2022/04/16 00:33:25;;;;;;;;;;;;;;;;;;1288504;23;921;-37
2022/04/16 00:33:55;;;;;;;;;;;;;;;;;;1288509;23;753;-38
2022/04/16 00:34:26;;;;;;;;;;;;;;;;;;1288766;23;833;-38
2022/04/16 00:34:56;;;;;;;;;;;;;;;;;;1288337;23;809;-37
2022/04/16 00:35:26;;;;;;;;;;;;;;;;;;1288330;23;908;-39
2022/04/16 00:35:57;;;;;;;;;;;;;;;;;;1281556;23;872;-36
2022/04/16 00:36:29;;;;;;;;;;;;;;;;;;1282171;23;840;-36
2022/04/16 00:37:00;;;;;;;;;;;;;;;;;;1281730;23;881;-36
2022/04/16 00:37:30;;;;;;;;;;;;;;;;;;1282593;23;925;-38
2022/04/16 00:38:01;;;;;;;;;;;;;;;;;;1288436;23;798;-36
2022/04/16 00:38:31;;;;;;;;;;;;;;;;;;1288906;23;833;-38
2022/04/16 00:39:01;;;;;;;;;;;;;;;;;;1288135;23;1185;-38
2022/04/16 00:39:32;;;;;;;;;;;;;;;;;;1288720;23;1892;-38
2022/04/16 00:40:02;;;;;;;;;;;;;;;;;;1288366;23;896;-38
2022/04/16 00:40:33;;;;;;;;;;;;;;;;;;1288611;23;864;-35
2022/04/16 00:41:04;;;;;;;;;;;;;;;;;;1288608;23;880;-37
2022/04/16 00:41:34;;;;;;;;;;;;;;;;;;1288770;23;798;-37
2022/04/16 00:42:04;;;;;;;;;;;;;;;;;;1288520;23;765;-37
2022/04/16 00:42:39;;;;;;;;;;;;;;;;;;1288055;23;857;-38
2022/04/16 00:43:25;;;;;;;;;;;;;;;;;;1288444;23;852;-38
2022/04/16 00:43:55;;;;;;;;;;;;;;;;;;1288572;23;912;-39
2022/04/16 00:44:27;;;;;;;;;;;;;;;;;;1288552;23;944;-40
2022/04/16 00:44:57;;;;;;;;;;;;;;;;;;1288519;23;766;-35
2022/04/16 00:45:28;;;;;;;;;;;;;;;;;;1288523;23;765;-44
2022/04/16 00:45:59;;;;;;;;;;;;;;;;;;1288462;23;937;-37
2022/04/16 00:46:30;;;;;;;;;;;;;;;;;;1288618;23;896;-36
2022/04/16 00:47:00;;;;;;;;;;;;;;;;;;1288503;23;778;-38
2022/04/16 00:47:30;;;;;;;;;;;;;;;;;;1288808;23;809;-38
2022/04/16 00:48:00;;;;;;;;;;;;;;;;;;1288507;23;818;-39
2022/04/16 00:48:31;;;;;;;;;;;;;;;;;;1288622;23;801;-38
2022/04/16 00:49:02;;;;;;;;;;;;;;;;;;1286761;23;902;-37
2022/04/16 00:49:34;;;;;;;;;;;;;;;;;;1288497;23;751;-39
2022/04/16 00:50:05;;;;;;;;;;;;;;;;;;1288091;23;869;-36
2022/04/16 00:50:35;;;;;;;;;;;;;;;;;;1288580;23;869;-42
2022/04/16 00:51:07;;;;;;;;;;;;;;;;;;1288491;23;821;-36
2022/04/16 00:51:39;;;;;;;;;;;;;;;;;;1288589;23;873;-38
2022/04/16 00:52:09;;;;;;;;;;;;;;;;;;1288378;23;998;-36
2022/04/16 00:52:40;;;;;;;;;;;;;;;;;;1288666;23;948;-37
2022/04/16 00:53:13;;;;;;;;;;;;;;;;;;1288391;23;509;-39
2022/04/16 00:53:44;;;;;;;;;;;;;;;;;;1288711;23;1003;-39
2022/04/16 00:54:15;;;;;;;;;;;;;;;;;;1288337;23;860;-38
2022/04/16 00:54:45;;;;;;;;;;;;;;;;;;1288701;23;837;-38
2022/04/16 00:55:16;;;;;;;;;;;;;;;;;;1288412;23;796;-35
2022/04/16 00:55:46;;;;;;;;;;;;;;;;;;1288618;23;977;-35
2022/04/16 00:56:16;;;;;;;;;;;;;;;;;;1288502;23;901;-43
2022/04/16 00:56:47;;;;;;;;;;;;;;;;;;1288662;23;1111;-36
2022/04/16 00:57:17;;;;;;;;;;;;;;;;;;1287858;23;917;-36
2022/04/16 00:57:48;;;;;;;;;;;;;;;;;;1288816;23;924;-38
2022/04/16 00:58:19;;;;;;;;;;;;;;;;;;1288285;23;904;-38
2022/04/16 00:58:49;;;;;;;;;;;;;;;;;;1288605;23;979;-38
2022/04/16 00:59:19;;;;;;;;;;;;;;;;;;1288204;23;1944;-38
2022/04/16 00:59:50;;;;;;;;;;;;;;;;;;1288741;23;794;-38
2022/04/16 01:00:20;;;;;;;;;;;;;;;;;;1288382;23;892;-35
2022/04/16 01:00:50;;;;;;;;;;;;;;;;;;1288798;23;778;-38
2022/04/16 01:01:21;;;;;;;;;;;;;;;;;;1288373;22;1301;-36
2022/04/16 01:01:51;;;;;;;;;;;;;;;;;;1288676;23;917;-38
2022/04/16 01:02:21;;;;;;;;;;;;;;;;;;1288383;23;856;-37
2022/04/16 01:02:54;;;;;;;;;;;;;;;;;;1288663;23;904;-37
2022/04/16 01:03:26;;;;;;;;;;;;;;;;;;1288521;23;837;-35
2022/04/16 01:03:56;;;;;;;;;;;;;;;;;;1288566;23;948;-39
2022/04/16 01:04:27;;;;;;;;;;;;;;;;;;1288417;23;821;-35
2022/04/16 01:04:57;;;;;;;;;;;;;;;;;;1288044;23;834;-39
2022/04/16 01:05:27;;;;;;;;;;;;;;;;;;1288683;23;897;-38
2022/04/16 01:06:01;;;;;;;;;;;;;;;;;;1288643;23;774;-37
2022/04/16 01:06:37;;;;;;;;;;;;;;;;;;1288013;23;932;-38
2022/04/16 01:07:11;;;;;;;;;;;;;;;;;;1288094;23;983;-38
2022/04/16 01:07:48;;;;;;;;;;;;;;;;;;1288355;23;837;-37
2022/04/16 01:08:19;;;;;;;;;;;;;;;;;;1287070;23;1025;-36
2022/04/16 01:08:49;;;;;;;;;;;;;;;;;;1288494;23;925;-39
2022/04/16 01:09:20;;;;;;;;;;;;;;;;;;1288515;23;810;-36
2022/04/16 01:09:50;;;;;;;;;;;;;;;;;;1288636;23;896;-37
2022/04/16 01:10:21;;;;;;;;;;;;;;;;;;1281726;23;1509;-38
2022/04/16 01:10:51;;;;;;;;;;;;;;;;;;1281180;23;1090;-38
2022/04/16 01:11:21;;;;;;;;;;;;;;;;;;1281976;23;901;-35
2022/04/16 01:11:51;;;;;;;;;;;;;;;;;;1281847;23;821;-36
2022/04/16 01:12:26;;;;;;;;;;;;;;;;;;1288116;23;888;-39
2022/04/16 01:12:58;;;;;;;;;;;;;;;;;;1288583;23;806;-35
2022/04/16 01:13:28;;;;;;;;;;;;;;;;;;1288560;23;833;-39
2022/04/16 01:14:00;;;;;;;;;;;;;;;;;;1288226;23;877;-38
2022/04/16 01:14:30;;;;;;;;;;;;;;;;;;1287975;23;877;-38
2022/04/16 01:15:00;;;;;;;;;;;;;;;;;;1288085;23;885;-36
2022/04/16 01:15:31;;;;;;;;;;;;;;;;;;1288295;23;750;-40
2022/04/16 01:16:01;;;;;;;;;;;;;;;;;;1288630;23;928;-38
2022/04/16 01:16:33;;;;;;;;;;;;;;;;;;1288545;23;802;-37
2022/04/16 01:17:04;;;;;;;;;;;;;;;;;;1288487;23;912;-36
2022/04/16 01:17:35;;;;;;;;;;;;;;;;;;1288543;23;876;-39
2022/04/16 01:18:08;;;;;;;;;;;;;;;;;;1288401;23;871;-39
2022/04/16 01:18:47;;;;;;;;;;;;;;;;;;1288570;23;951;-38
2022/04/16 01:19:19;;;;;;;;;;;;;;;;;;1288363;23;1897;-38
2022/04/16 01:19:49;;;;;;;;;;;;;;;;;;1288134;23;901;-37
2022/04/16 01:20:20;;;;;;;;;;;;;;;;;;1288321;23;856;-37
2022/04/16 01:20:50;;;;;;;;;;;;;;;;;;1288622;23;925;-38
2022/04/16 01:21:20;;;;;;;;;;;;;;;;;;1288436;23;826;-38
2022/04/16 01:21:51;;;;;;;;;;;;;;;;;;1288572;23;1136;-35
2022/04/16 01:22:24;;;;;;;;;;;;;;;;;;1288262;23;858;-39
2022/04/16 01:22:56;;;;;;;;;;;;;;;;;;1288794;23;960;-38
2022/04/16 01:23:27;;;;;;;;;;;;;;;;;;1288513;23;881;-35
2022/04/16 01:23:58;;;;;;;;;;;;;;;;;;1288481;23;834;-37
2022/04/16 01:24:28;;;;;;;;;;;;;;;;;;1288484;23;854;-39
2022/04/16 01:25:00;;;;;;;;;;;;;;;;;;1288502;23;742;-35
2022/04/16 01:25:32;;;;;;;;;;;;;;;;;;1288506;23;889;-37
2022/04/16 01:26:02;;;;;;;;;;;;;;;;;;1288419;23;944;-39
2022/04/16 01:26:32;;;;;;;;;;;;;;;;;;1288477;23;1778;-37
2022/04/16 01:27:04;;;;;;;;;;;;;;;;;;1287963;23;814;-33
2022/04/16 01:27:43;;;;;;;;;;;;;;;;;;1288417;23;889;-36
2022/04/16 01:28:13;;;;;;;;;;;;;;;;;;1288347;23;838;-36
2022/04/16 01:28:44;;;;;;;;;;;;;;;;;;1281953;23;809;-38
2022/04/16 01:29:14;;;;;;;;;;;;;;;;;;1281843;23;885;-39
2022/04/16 01:29:44;;;;;;;;;;;;;;;;;;1281981;23;841;-39
2022/04/16 01:30:16;;;;;;;;;;;;;;;;;;1281653;23;800;-37
2022/04/16 01:30:47;;;;;;;;;;;;;;;;;;1288644;23;754;-37
2022/04/16 01:31:17;;;;;;;;;;;;;;;;;;1281929;23;897;-37
2022/04/16 01:31:47;;;;;;;;;;;;;;;;;;1281779;23;1066;-36
2022/04/16 01:32:18;;;;;;;;;;;;;;;;;;1281641;23;981;-35
2022/04/16 01:32:52;;;;;;;;;;;;;;;;;;1281737;23;889;-37
2022/04/16 01:33:25;;;;;;;;;;;;;;;;;;1288551;23;889;-36
2022/04/16 01:33:57;;;;;;;;;;;;;;;;;;1287625;23;971;-38
2022/04/16 01:34:29;;;;;;;;;;;;;;;;;;1288032;23;964;-38
2022/04/16 01:35:00;;;;;;;;;;;;;;;;;;1288483;23;801;-37
2022/04/16 01:35:30;;;;;;;;;;;;;;;;;;1288605;23;1052;-34
2022/04/16 01:36:00;;;;;;;;;;;;;;;;;;1288255;23;972;-35
2022/04/16 01:36:31;;;;;;;;;;;;;;;;;;1288345;23;905;-38
2022/04/16 01:37:02;;;;;;;;;;;;;;;;;;1288315;23;928;-34
2022/04/16 01:37:35;;;;;;;;;;;;;;;;;;1288606;23;896;-38
2022/04/16 01:38:11;;;;;;;;;;;;;;;;;;1288308;23;893;-38
2022/04/16 01:38:42;;;;;;;;;;;;;;;;;;1288487;23;972;-34
2022/04/16 01:39:12;;;;;;;;;;;;;;;;;;1288136;23;1938;-37
2022/04/16 01:39:42;;;;;;;;;;;;;;;;;;1288479;23;877;-38
2022/04/16 01:40:14;;;;;;;;;;;;;;;;;;1288493;23;849;-36
2022/04/16 01:40:44;;;;;;;;;;;;;;;;;;1288567;23;837;-38
2022/04/16 01:41:14;;;;;;;;;;;;;;;;;;1288417;23;941;-37
2022/04/16 01:41:46;;;;;;;;;;;;;;;;;;1288188;23;908;-38
2022/04/16 01:42:18;;;;;;;;;;;;;;;;;;1288459;23;797;-36
2022/04/16 01:42:49;;;;;;;;;;;;;;;;;;1288533;23;925;-38
2022/04/16 01:43:20;;;;;;;;;;;;;;;;;;1288617;23;770;-35
2022/04/16 01:43:54;;;;;;;;;;;;;;;;;;1281554;23;1284;-38
2022/04/16 01:44:24;;;;;;;;;;;;;;;;;;1281811;23;782;-37
2022/04/16 01:45:00;;;;;;;;;;;;;;;;;;1281726;23;1037;-35
2022/04/16 01:45:30;;;;;;;;;;;;;;;;;;1283833;23;960;-39
2022/04/16 01:46:04;;;;;;;;;;;;;;;;;;1288422;23;855;-38
2022/04/16 01:46:36;;;;;;;;;;;;;;;;;;1288572;23;869;-37
2022/04/16 01:47:07;;;;;;;;;;;;;;;;;;1288065;23;980;-37
2022/04/16 01:47:38;;;;;;;;;;;;;;;;;;1288714;23;881;-34
2022/04/16 01:48:13;;;;;;;;;;;;;;;;;;1288378;23;876;-38
2022/04/16 01:48:43;;;;;;;;;;;;;;;;;;1288687;23;812;-38
2022/04/16 01:49:14;;;;;;;;;;;;;;;;;;1288052;23;794;-36
2022/04/16 01:49:44;;;;;;;;;;;;;;;;;;1288485;23;845;-39
2022/04/16 01:50:14;;;;;;;;;;;;;;;;;;1288297;23;948;-38
2022/04/16 01:50:51;;;;;;;;;;;;;;;;;;1288637;23;928;-39
2022/04/16 01:51:22;;;;;;;;;;;;;;;;;;1288410;23;786;-39
2022/04/16 01:51:54;;;;;;;;;;;;;;;;;;1288526;23;873;-38
2022/04/16 01:52:25;;;;;;;;;;;;;;;;;;1288350;23;901;-38
2022/04/16 01:52:55;;;;;;;;;;;;;;;;;;1288415;23;961;-38
2022/04/16 01:53:25;;;;;;;;;;;;;;;;;;1288623;23;877;-37
2022/04/16 01:53:59;;;;;;;;;;;;;;;;;;1288304;23;519;-36
2022/04/16 01:54:29;;;;;;;;;;;;;;;;;;1281852;23;1135;-36
2022/04/16 01:54:59;;;;;;;;;;;;;;;;;;1281780;23;801;-36
2022/04/16 01:55:29;;;;;;;;;;;;;;;;;;1282089;23;814;-37
2022/04/16 01:56:00;;;;;;;;;;;;;;;;;;1281621;23;850;-36
2022/04/16 01:56:30;;;;;;;;;;;;;;;;;;1288028;23;801;-34
2022/04/16 01:57:01;;;;;;;;;;;;;;;;;;1288372;23;957;-36
2022/04/16 01:57:32;;;;;;;;;;;;;;;;;;1288663;23;916;-36
2022/04/16 01:58:06;;;;;;;;;;;;;;;;;;1288219;23;820;-35
2022/04/16 01:58:38;;;;;;;;;;;;;;;;;;1288803;23;908;-37
2022/04/16 01:59:08;;;;;;;;;;;;;;;;;;1288013;23;1959;-35
2022/04/16 01:59:39;;;;;;;;;;;;;;;;;;1288635;23;949;-39
2022/04/16 02:00:11;;;;;;;;;;;;;;;;;;1288146;23;853;-38
2022/04/16 02:00:41;;;;;;;;;;;;;;;;;;1288597;23;845;-37
2022/04/16 02:01:11;;;;;;;;;;;;;;;;;;1288240;23;992;-36
2022/04/16 02:01:42;;;;;;;;;;;;;;;;;;1288626;23;1295;-35
2022/04/16 02:02:13;;;;;;;;;;;;;;;;;;1288103;23;852;-37
2022/04/16 02:02:46;;;;;;;;;;;;;;;;;;1288705;23;888;-36
2022/04/16 02:03:16;;;;;;;;;;;;;;;;;;1288465;23;884;-37
2022/04/16 02:03:50;;;;;;;;;;;;;;;;;;1288319;23;805;-35
2022/04/16 02:04:20;;;;;;;;;;;;;;;;;;1288139;23;908;-39
2022/04/16 02:04:51;;;;;;;;;;;;;;;;;;1288496;23;869;-37
2022/04/16 02:05:22;;;;;;;;;;;;;;;;;;1288583;23;877;-36
2022/04/16 02:05:53;;;;;;;;;;;;;;;;;;1288369;23;935;-35
2022/04/16 02:06:24;;;;;;;;;;;;;;;;;;1288196;23;884;-37
2022/04/16 02:06:54;;;;;;;;;;;;;;;;;;1288364;23;1245;-39
2022/04/16 02:07:24;;;;;;;;;;;;;;;;;;1288343;23;758;-37
2022/04/16 02:07:55;;;;;;;;;;;;;;;;;;1288588;23;932;-37
2022/04/16 02:08:26;;;;;;;;;;;;;;;;;;1288224;23;904;-34
2022/04/16 02:08:56;;;;;;;;;;;;;;;;;;1288482;23;905;-37
2022/04/16 02:09:27;;;;;;;;;;;;;;;;;;1288504;23;844;-37
2022/04/16 02:09:57;;;;;;;;;;;;;;;;;;1288301;23;849;-38
2022/04/16 02:10:27;;;;;;;;;;;;;;;;;;1288662;23;908;-37
2022/04/16 02:10:58;;;;;;;;;;;;;;;;;;1288342;23;939;-37
2022/04/16 02:11:28;;;;;;;;;;;;;;;;;;1287905;23;960;-39
2022/04/16 02:11:58;;;;;;;;;;;;;;;;;;1288558;23;873;-37
2022/04/16 02:12:29;;;;;;;;;;;;;;;;;;1288262;23;889;-37
2022/04/16 02:13:00;;;;;;;;;;;;;;;;;;1288489;23;853;-35
2022/04/16 02:13:32;;;;;;;;;;;;;;;;;;1288635;23;971;-39
2022/04/16 02:14:02;;;;;;;;;;;;;;;;;;1288221;23;909;-38
2022/04/16 02:14:33;;;;;;;;;;;;;;;;;;1288651;23;948;-38
2022/04/16 02:15:04;;;;;;;;;;;;;;;;;;1288403;23;964;-37
2022/04/16 02:15:35;;;;;;;;;;;;;;;;;;1288582;23;1140;-36
2022/04/16 02:16:05;;;;;;;;;;;;;;;;;;1287433;23;1321;-40
2022/04/16 02:16:36;;;;;;;;;;;;;;;;;;1288479;23;832;-36
2022/04/16 02:17:09;;;;;;;;;;;;;;;;;;1288289;23;852;-38
2022/04/16 02:17:40;;;;;;;;;;;;;;;;;;1288496;23;818;-37
2022/04/16 02:18:10;;;;;;;;;;;;;;;;;;1288120;23;878;-33
2022/04/16 02:18:40;;;;;;;;;;;;;;;;;;1288204;23;900;-38
2022/04/16 02:19:11;;;;;;;;;;;;;;;;;;1288192;23;1942;-38
2022/04/16 02:19:41;;;;;;;;;;;;;;;;;;1288784;23;866;-37
2022/04/16 02:20:11;;;;;;;;;;;;;;;;;;1288206;23;853;-35
2022/04/16 02:20:43;;;;;;;;;;;;;;;;;;1288489;23;824;-38
2022/04/16 02:21:16;;;;;;;;;;;;;;;;;;1288352;23;782;-33
2022/04/16 02:21:47;;;;;;;;;;;;;;;;;;1288630;23;825;-34
2022/04/16 02:22:18;;;;;;;;;;;;;;;;;;1288482;23;821;-38
2022/04/16 02:22:48;;;;;;;;;;;;;;;;;;1288643;23;793;-35
2022/04/16 02:23:19;;;;;;;;;;;;;;;;;;1288410;23;809;-33
2022/04/16 02:23:51;;;;;;;;;;;;;;;;;;1288583;23;1637;-36
2022/04/16 02:24:22;;;;;;;;;;;;;;;;;;1288374;23;789;-36
2022/04/16 02:24:52;;;;;;;;;;;;;;;;;;1288372;23;899;-37
2022/04/16 02:25:25;;;;;;;;;;;;;;;;;;1288395;23;932;-36
2022/04/16 02:25:56;;;;;;;;;;;;;;;;;;1288382;23;881;-35
2022/04/16 02:26:26;;;;;;;;;;;;;;;;;;1287993;23;805;-36
2022/04/16 02:26:56;;;;;;;;;;;;;;;;;;1288163;23;833;-37
2022/04/16 02:27:27;;;;;;;;;;;;;;;;;;1288436;23;908;-38
2022/04/16 02:27:57;;;;;;;;;;;;;;;;;;1288377;23;786;-35
2022/04/16 02:28:27;;;;;;;;;;;;;;;;;;1288218;23;1361;-37
2022/04/16 02:28:59;;;;;;;;;;;;;;;;;;1288392;23;924;-38
2022/04/16 02:29:31;;;;;;;;;;;;;;;;;;1288634;23;786;-31
2022/04/16 02:30:05;;;;;;;;;;;;;;;;;;1288326;23;817;-39
2022/04/16 02:30:37;;;;;;;;;;;;;;;;;;1288685;23;802;-39
2022/04/16 02:31:08;;;;;;;;;;;;;;;;;;1288185;23;909;-36
2022/04/16 02:31:38;;;;;;;;;;;;;;;;;;1288792;23;828;-35
2022/04/16 02:32:09;;;;;;;;;;;;;;;;;;1288198;23;845;-36
2022/04/16 02:32:41;;;;;;;;;;;;;;;;;;1288616;23;938;-36
2022/04/16 02:33:12;;;;;;;;;;;;;;;;;;1287764;23;1171;-37
2022/04/16 02:33:42;;;;;;;;;;;;;;;;;;1287775;23;801;-38
2022/04/16 02:34:16;;;;;;;;;;;;;;;;;;1287917;23;908;-33
2022/04/16 02:34:52;;;;;;;;;;;;;;;;;;1288205;23;817;-38
2022/04/16 02:35:23;;;;;;;;;;;;;;;;;;1281590;23;889;-34
2022/04/16 02:35:53;;;;;;;;;;;;;;;;;;1281815;23;864;-36
2022/04/16 02:36:26;;;;;;;;;;;;;;;;;;1281463;23;830;-37
2022/04/16 02:36:58;;;;;;;;;;;;;;;;;;1282727;23;885;-38
2022/04/16 02:37:28;;;;;;;;;;;;;;;;;;1288611;23;767;-37
2022/04/16 02:38:02;;;;;;;;;;;;;;;;;;1288147;23;837;-36
2022/04/16 02:38:32;;;;;;;;;;;;;;;;;;1288537;23;600;-36
2022/04/16 02:39:03;;;;;;;;;;;;;;;;;;1287957;23;1038;-37
2022/04/16 02:39:37;;;;;;;;;;;;;;;;;;1288477;23;1904;-36
2022/04/16 02:40:08;;;;;;;;;;;;;;;;;;1288145;23;1067;-36
2022/04/16 02:40:38;;;;;;;;;;;;;;;;;;1288502;23;846;-35
2022/04/16 02:41:08;;;;;;;;;;;;;;;;;;1287760;23;806;-38
2022/04/16 02:41:38;;;;;;;;;;;;;;;;;;1288738;23;807;-38
2022/04/16 02:42:09;;;;;;;;;;;;;;;;;;1288094;23;857;-31
2022/04/16 02:42:40;;;;;;;;;;;;;;;;;;1288584;23;821;-34
2022/04/16 02:43:11;;;;;;;;;;;;;;;;;;1288227;23;1035;-36
2022/04/16 02:43:41;;;;;;;;;;;;;;;;;;1288698;23;929;-37
2022/04/16 02:47:05;;;;;;;;;;;;;;;;;;1288289;23;837;-38
2022/04/16 02:47:49;;;;;;;;;;;;;;;;;;1269232;23;1329;-34
2022/04/16 02:48:20;;;;;;;;;;;;;;;;;;1268397;23;854;-35
2022/04/16 02:48:50;;;;;;;;;;;;;;;;;;1274774;23;1160;-37
2022/04/16 02:49:21;;;;;;;;;;;;;;;;;;1288715;23;884;-38
2022/04/16 02:49:51;;;;;;;;;;;;;;;;;;1288917;23;960;-38
2022/04/16 02:50:24;;;;;;;;;;;;;;;;;;1288646;23;814;-35
2022/04/16 02:50:55;;;;;;;;;;;;;;;;;;1289141;23;904;-37
2022/04/16 02:51:25;;;;;;;;;;;;;;;;;;1288077;23;1012;-34
2022/04/16 02:51:55;;;;;;;;;;;;;;;;;;1289046;23;921;-38
2022/04/16 02:52:26;;;;;;;;;;;;;;;;;;1288685;23;873;-36
2022/04/16 02:52:56;;;;;;;;;;;;;;;;;;1288776;23;901;-35
2022/04/16 02:53:26;;;;;;;;;;;;;;;;;;1288862;23;905;-35
2022/04/16 02:53:57;;;;;;;;;;;;;;;;;;1288687;23;984;-37
2022/04/16 02:54:28;;;;;;;;;;;;;;;;;;1288911;23;794;-36
2022/04/16 02:54:58;;;;;;;;;;;;;;;;;;1288816;23;920;-36
2022/04/16 02:55:28;;;;;;;;;;;;;;;;;;1288765;23;775;-37
2022/04/16 02:55:59;;;;;;;;;;;;;;;;;;1288528;23;826;-38
2022/04/16 02:56:29;;;;;;;;;;;;;;;;;;1288602;23;773;-39
2022/04/16 02:57:00;;;;;;;;;;;;;;;;;;1288708;23;853;-36
2022/04/16 02:57:33;;;;;;;;;;;;;;;;;;1288821;23;888;-38
2022/04/16 02:58:03;;;;;;;;;;;;;;;;;;1288759;23;1113;-33
2022/04/16 02:58:33;;;;;;;;;;;;;;;;;;1288818;23;916;-36
2022/04/16 02:59:04;;;;;;;;;;;;;;;;;;1288700;23;920;-36
2022/04/16 02:59:35;;;;;;;;;;;;;;;;;;1288784;23;1936;-37
2022/04/16 03:00:06;;;;;;;;;;;;;;;;;;1288550;23;881;-37
2022/04/16 03:00:36;;;;;;;;;;;;;;;;;;1288872;23;984;-35
2022/04/16 03:01:06;;;;;;;;;;;;;;;;;;1288718;23;861;-34
2022/04/16 03:01:37;;;;;;;;;;;;;;;;;;1289053;23;789;-38
2022/04/16 03:02:07;;;;;;;;;;;;;;;;;;1288621;23;1071;-38
2022/04/16 03:02:37;;;;;;;;;;;;;;;;;;1289072;23;817;-33
2022/04/16 03:03:08;;;;;;;;;;;;;;;;;;1288119;23;1067;-37
2022/04/16 03:03:39;;;;;;;;;;;;;;;;;;1289161;23;848;-35
2022/04/16 03:04:09;;;;;;;;;;;;;;;;;;1288671;23;948;-38
2022/04/16 03:04:39;;;;;;;;;;;;;;;;;;1288988;23;889;-36
2022/04/16 03:05:10;;;;;;;;;;;;;;;;;;1288551;23;929;-38
2022/04/16 03:05:41;;;;;;;;;;;;;;;;;;1288840;23;833;-37
2022/04/16 03:06:14;;;;;;;;;;;;;;;;;;1288562;23;844;-39
2022/04/16 03:06:44;;;;;;;;;;;;;;;;;;1288823;23;988;-39
2022/04/16 03:07:15;;;;;;;;;;;;;;;;;;1288518;23;964;-37
2022/04/16 03:07:45;;;;;;;;;;;;;;;;;;1289009;23;762;-37
2022/04/16 03:08:15;;;;;;;;;;;;;;;;;;1288693;23;834;-34
2022/04/16 03:08:46;;;;;;;;;;;;;;;;;;1288905;23;779;-38
2022/04/16 03:09:16;;;;;;;;;;;;;;;;;;1288910;23;951;-36
2022/04/16 03:09:46;;;;;;;;;;;;;;;;;;1288931;23;770;-38
2022/04/16 03:10:17;;;;;;;;;;;;;;;;;;1288928;23;936;-36
2022/04/16 03:10:47;;;;;;;;;;;;;;;;;;1288408;23;881;-34
2022/04/16 03:11:17;;;;;;;;;;;;;;;;;;1288578;23;860;-39
2022/04/16 03:11:48;;;;;;;;;;;;;;;;;;1289034;23;588;-33
2022/04/16 03:12:18;;;;;;;;;;;;;;;;;;1288529;23;962;-37
2022/04/16 03:12:51;;;;;;;;;;;;;;;;;;1288879;23;872;-38
2022/04/16 03:13:21;;;;;;;;;;;;;;;;;;1288587;23;971;-39
2022/04/16 03:13:52;;;;;;;;;;;;;;;;;;1288786;23;940;-38
2022/04/16 03:17:41;;;;;;;;;;;;;;;;;;1288929;23;904;-38
2022/04/16 03:18:11;;;;;;;;;;;;;;;;;;1287660;23;925;-36
2022/04/16 03:18:42;;;;;;;;;;;;;;;;;;1288760;23;1095;-38
2022/04/16 03:19:12;;;;;;;;;;;;;;;;;;1288416;23;1920;-38
2022/04/16 03:19:46;;;;;;;;;;;;;;;;;;1289150;23;829;-36
2022/04/16 03:20:16;;;;;;;;;;;;;;;;;;1288682;23;826;-34
2022/04/16 03:20:46;;;;;;;;;;;;;;;;;;1288999;23;884;-37
2022/04/16 03:21:20;;;;;;;;;;;;;;;;;;1288575;23;793;-38
2022/04/16 03:21:50;;;;;;;;;;;;;;;;;;1288848;23;821;-39
2022/04/16 03:22:21;;;;;;;;;;;;;;;;;;1288691;23;933;-36
2022/04/16 03:22:51;;;;;;;;;;;;;;;;;;1288797;23;829;-37
2022/04/16 03:23:22;;;;;;;;;;;;;;;;;;1288855;23;774;-36
2022/04/16 03:23:52;;;;;;;;;;;;;;;;;;1288769;23;913;-39
2022/04/16 03:24:22;;;;;;;;;;;;;;;;;;1288188;23;754;-38
2022/04/16 03:24:52;;;;;;;;;;;;;;;;;;1288481;23;866;-38
2022/04/16 03:25:24;;;;;;;;;;;;;;;;;;1287837;23;932;-35
2022/04/16 03:26:00;;;;;;;;;;;;;;;;;;1288435;23;897;-37
2022/04/16 03:26:30;;;;;;;;;;;;;;;;;;1288853;23;825;-38
2022/04/16 03:27:00;;;;;;;;;;;;;;;;;;1288576;23;502;-36
2022/04/16 03:27:33;;;;;;;;;;;;;;;;;;1288932;23;834;-36
2022/04/16 03:28:03;;;;;;;;;;;;;;;;;;1288671;23;1015;-38
2022/04/16 03:28:38;;;;;;;;;;;;;;;;;;1288923;23;773;-38
2022/04/16 03:29:08;;;;;;;;;;;;;;;;;;1288550;23;940;-37
2022/04/16 03:29:42;;;;;;;;;;;;;;;;;;1288839;23;912;-36
2022/04/16 03:30:12;;;;;;;;;;;;;;;;;;1288573;23;971;-43
2022/04/16 03:30:43;;;;;;;;;;;;;;;;;;1288855;23;897;-37
2022/04/16 03:31:13;;;;;;;;;;;;;;;;;;1288595;23;950;-35
2022/04/16 03:31:43;;;;;;;;;;;;;;;;;;1288991;23;892;-38
2022/04/16 03:32:14;;;;;;;;;;;;;;;;;;1288467;22;971;-37
2022/04/16 03:32:45;;;;;;;;;;;;;;;;;;1288482;23;880;-36
2022/04/16 03:33:16;;;;;;;;;;;;;;;;;;1288608;23;1610;-38
2022/04/16 03:33:46;;;;;;;;;;;;;;;;;;1288881;23;885;-37
2022/04/16 03:34:17;;;;;;;;;;;;;;;;;;1288824;23;980;-35
2022/04/16 03:34:47;;;;;;;;;;;;;;;;;;1288555;23;917;-38
2022/04/16 03:35:18;;;;;;;;;;;;;;;;;;1288740;23;814;-33
2022/04/16 03:35:49;;;;;;;;;;;;;;;;;;1288587;23;746;-34
2022/04/16 03:36:19;;;;;;;;;;;;;;;;;;1288718;23;825;-39
2022/04/16 03:36:49;;;;;;;;;;;;;;;;;;1288989;23;892;-35
2022/04/16 03:37:20;;;;;;;;;;;;;;;;;;1288475;23;816;-38
2022/04/16 03:37:50;;;;;;;;;;;;;;;;;;1289042;23;810;-37
2022/04/16 03:38:20;;;;;;;;;;;;;;;;;;1288573;23;793;-35
2022/04/16 03:38:51;;;;;;;;;;;;;;;;;;1288583;23;964;-35
2022/04/16 03:39:21;;;;;;;;;;;;;;;;;;1288275;23;1940;-37
2022/04/16 03:39:55;;;;;;;;;;;;;;;;;;1288983;23;908;-36
2022/04/16 03:40:26;;;;;;;;;;;;;;;;;;1287998;23;774;-37
2022/04/16 03:40:57;;;;;;;;;;;;;;;;;;1288920;23;880;-33
2022/04/16 03:41:27;;;;;;;;;;;;;;;;;;1288504;23;909;-36
2022/04/16 03:41:57;;;;;;;;;;;;;;;;;;1288679;23;944;-37
2022/04/16 03:42:28;;;;;;;;;;;;;;;;;;1288831;23;949;-38
2022/04/16 03:42:59;;;;;;;;;;;;;;;;;;1288622;23;964;-37
2022/04/16 03:43:29;;;;;;;;;;;;;;;;;;1288698;23;841;-36
2022/04/16 03:43:59;;;;;;;;;;;;;;;;;;1288771;23;821;-36
2022/04/16 03:44:30;;;;;;;;;;;;;;;;;;1288860;23;1013;-35
2022/04/16 03:45:00;;;;;;;;;;;;;;;;;;1288691;23;924;-35
2022/04/16 03:45:32;;;;;;;;;;;;;;;;;;1288736;23;900;-37
2022/04/16 03:46:02;;;;;;;;;;;;;;;;;;1288824;23;750;-34